Time;durP1;ratioP1;P1;durP2;ratioP2;P2;SDS_P1;SDS_P2;PMS_P1;PMS_P2;Temp;Humidity;BMP_temperature;BMP_pressure;BME280_temperature;BME280_humidity;BME280_pressure;Samples;Min_cycle;Max_cycle;Signal;HPM_P1;HPM_P2
2022/03/21 00:01:16;;;;;;;;;;;;;;;2.36;68.12;100815.69;5069245;28;20434;-66
2022/03/21 00:03:41;;;;;;;;;;;;;;;2.31;68.20;100809.25;5073335;28;19924;-65
2022/03/21 00:06:07;;;;;;;;;;;;;;;2.30;68.33;100816.28;5074882;28;19928;-66
2022/03/21 00:08:33;;;;;;;;;;;;;;;2.28;68.20;100815.59;5040045;28;19931;-66
2022/03/21 00:10:59;;;;;;;;;;;;;;;2.29;68.64;100804.16;5074348;28;19928;-67
2022/03/21 00:13:24;;;;;;;;;;;;;;;2.23;68.34;100796.91;5056700;28;20297;-69
2022/03/21 00:15:52;;;;;;;;;;;;;;;2.20;68.86;100794.56;5073254;28;19932;-66
2022/03/21 00:18:18;;;;;;;;;;;;;;;2.20;68.68;100786.72;5074278;28;19951;-66
2022/03/21 00:20:46;;;;;;;;;;;;;;;2.14;68.70;100779.47;5072979;28;19928;-64
2022/03/21 00:23:11;;;;;;;;;;;;;;;2.13;68.88;100783.06;5085589;28;19924;-66
2022/03/21 00:25:37;;;;;;;;;;;;;;;2.15;69.08;100786.38;5093353;28;19928;-66
2022/03/21 00:28:03;;;;;;;;;;;;;;;2.14;68.45;100782.09;5094881;28;19931;-64
2022/03/21 00:30:29;;;;;;;;;;;;;;;2.11;68.97;100787.63;5092799;28;20324;-68
2022/03/21 00:32:55;;;;;;;;;;;;;;;2.06;68.96;100785.47;5059544;28;19924;-69
2022/03/21 00:35:21;;;;;;;;;;;;;;;2.02;69.31;100787.53;5093057;28;19974;-68
2022/03/21 00:37:47;;;;;;;;;;;;;;;1.97;69.54;100792.41;5094263;28;19928;-66
2022/03/21 00:40:13;;;;;;;;;;;;;;;1.95;69.74;100798.75;5092931;28;19974;-66
2022/03/21 00:42:39;;;;;;;;;;;;;;;1.93;69.54;100798.06;5093512;28;19928;-66
2022/03/21 00:45:05;;;;;;;;;;;;;;;1.92;69.34;100805.09;5093976;28;20065;-66
2022/03/21 00:47:31;;;;;;;;;;;;;;;1.87;69.50;100793.41;5094023;28;19932;-65
2022/03/21 00:49:57;;;;;;;;;;;;;;;1.84;69.63;100793.72;5092730;28;19946;-65
2022/03/21 00:52:23;;;;;;;;;;;;;;;1.80;70.18;100794.00;5075978;28;20400;-66
2022/03/21 00:54:49;;;;;;;;;;;;;;;1.80;70.25;100783.56;5091997;28;20400;-66
2022/03/21 00:57:14;;;;;;;;;;;;;;;1.70;69.97;100784.56;5092935;28;19919;-66
2022/03/21 00:59:40;;;;;;;;;;;;;;;1.71;70.15;100781.00;5092494;28;19939;-66
2022/03/21 01:02:08;;;;;;;;;;;;;;;1.66;70.67;100777.97;5057361;28;19964;-66
2022/03/21 01:04:33;;;;;;;;;;;;;;;1.63;70.67;100781.72;5054186;28;19925;-65
2022/03/21 01:06:59;;;;;;;;;;;;;;;1.59;70.56;100778.56;5053703;28;19932;-66
2022/03/21 01:09:25;;;;;;;;;;;;;;;1.59;70.96;100786.41;5053997;28;19925;-68
2022/03/21 01:11:51;;;;;;;;;;;;;;;1.57;70.76;100779.69;5069955;28;19964;-65
2022/03/21 01:14:16;;;;;;;;;;;;;;;1.51;71.31;100778.47;5072137;28;19967;-66
2022/03/21 01:16:42;;;;;;;;;;;;;;;1.47;71.65;100782.34;5073439;28;19928;-66
2022/03/21 01:19:07;;;;;;;;;;;;;;;1.49;71.12;100782.19;5081834;28;19924;-66
2022/03/21 01:21:33;;;;;;;;;;;;;;;1.41;71.63;100780.28;5093350;28;19928;-67
2022/03/21 01:23:59;;;;;;;;;;;;;;;1.39;72.10;100776.19;5092397;28;19923;-67
2022/03/21 01:26:24;;;;;;;;;;;;;;;1.40;72.26;100776.03;5093446;28;19939;-65
2022/03/21 01:28:50;;;;;;;;;;;;;;;1.39;72.07;100769.16;5093173;28;20026;-66
2022/03/21 01:31:15;;;;;;;;;;;;;;;1.38;72.00;100761.47;5093147;28;19971;-64
2022/03/21 01:33:41;;;;;;;;;;;;;;;1.35;72.10;100766.03;5093013;28;19931;-65
2022/03/21 01:36:07;;;;;;;;;;;;;;;1.35;71.77;100762.56;5093081;28;20009;-68
2022/03/21 01:38:33;;;;;;;;;;;;;;;1.30;72.02;100765.63;5083976;28;19967;-65
2022/03/21 01:40:58;;;;;;;;;;;;;;;1.32;72.41;100770.69;5071490;28;19929;-66
2022/03/21 01:43:23;;;;;;;;;;;;;;;1.29;71.86;100782.25;5072887;28;19928;-65
2022/03/21 01:45:49;;;;;;;;;;;;;;;1.26;71.84;100774.69;5072606;28;19932;-67
2022/03/21 01:48:15;;;;;;;;;;;;;;;1.24;72.58;100781.06;5072842;28;20013;-66
2022/03/21 01:50:41;;;;;;;;;;;;;;;1.12;72.39;100783.00;5071641;28;20305;-65
2022/03/21 01:55:51;;;;;;;;;;;;;;;1.12;72.79;100764.72;5072468;28;19928;-66
2022/03/21 01:58:16;;;;;;;;;;;;;;;1.10;72.64;100774.50;5071123;28;20019;-64
2022/03/21 02:00:42;;;;;;;;;;;;;;;1.08;73.41;100774.63;5054281;28;19928;-65
2022/03/21 02:03:08;;;;;;;;;;;;;;;1.07;73.25;100769.53;5071175;28;20025;-66
2022/03/21 02:05:37;;;;;;;;;;;;;;;1.08;73.19;100768.56;5072186;28;20381;-66
2022/03/21 02:08:03;;;;;;;;;;;;;;;1.07;73.69;100765.13;5070904;28;19939;-66
2022/03/21 02:10:29;;;;;;;;;;;;;;;1.12;73.42;100773.38;5070990;28;19932;-66
2022/03/21 02:12:54;;;;;;;;;;;;;;;1.16;73.42;100767.88;5072376;28;19931;-67
2022/03/21 02:15:20;;;;;;;;;;;;;;;1.18;73.54;100778.97;5072364;28;19932;-63
2022/03/21 02:17:46;;;;;;;;;;;;;;;1.21;73.35;100787.38;5083365;28;20376;-65
2022/03/21 02:20:12;;;;;;;;;;;;;;;1.20;73.56;100779.66;5092484;28;20018;-64
2022/03/21 02:22:56;;;;;;;;;;;;;;;1.16;73.73;100773.91;5092485;28;19993;-65
2022/03/21 02:25:32;;;;;;;;;;;;;;;1.21;73.37;100778.72;5089281;28;19928;-65
2022/03/21 02:28:01;;;;;;;;;;;;;;;1.17;73.10;100775.56;5072090;28;19924;-63
2022/03/21 02:30:27;;;;;;;;;;;;;;;1.18;73.33;100771.16;5071842;28;19936;-67
2022/03/21 02:32:53;;;;;;;;;;;;;;;1.15;73.35;100782.72;5054280;28;19925;-65
2022/03/21 02:35:18;;;;;;;;;;;;;;;1.12;73.49;100773.38;5070705;28;20405;-67
2022/03/21 02:37:44;;;;;;;;;;;;;;;1.13;73.92;100775.03;5070094;28;19924;-65
2022/03/21 02:40:13;;;;;;;;;;;;;;;1.14;74.26;100771.44;5070819;28;19928;-67
2022/03/21 02:42:38;;;;;;;;;;;;;;;1.14;73.82;100781.88;5071754;28;19946;-64
2022/03/21 02:45:04;;;;;;;;;;;;;;;1.15;74.25;100774.88;5070705;28;20304;-65
2022/03/21 02:47:30;;;;;;;;;;;;;;;1.10;73.62;100764.84;5053658;28;19932;-63
2022/03/21 02:49:57;;;;;;;;;;;;;;;1.12;74.46;100770.78;5071736;28;19933;-64
2022/03/21 02:52:23;;;;;;;;;;;;;;;1.12;73.67;100778.59;5070835;28;19924;-65
2022/03/21 02:54:48;;;;;;;;;;;;;;;1.09;74.24;100773.66;5070716;28;19935;-63
2022/03/21 02:57:14;;;;;;;;;;;;;;;1.10;73.82;100775.31;5071431;28;20404;-66
2022/03/21 02:59:39;;;;;;;;;;;;;;;1.05;74.36;100764.44;5070412;28;19932;-65
2022/03/21 03:02:07;;;;;;;;;;;;;;;1.07;73.84;100772.97;5071582;28;20006;-66
2022/03/21 03:04:32;;;;;;;;;;;;;;;1.07;74.42;100759.09;5070160;28;20294;-65
2022/03/21 03:06:58;;;;;;;;;;;;;;;1.06;74.68;100758.28;5071826;28;19935;-66
2022/03/21 03:09:23;;;;;;;;;;;;;;;1.04;74.09;100749.75;5072068;28;20278;-62
2022/03/21 03:11:49;;;;;;;;;;;;;;;1.06;74.69;100741.75;5070246;28;19935;-66
2022/03/21 03:14:14;;;;;;;;;;;;;;;1.03;74.49;100745.50;5070520;28;19924;-64
2022/03/21 03:16:40;;;;;;;;;;;;;;;1.03;74.87;100745.50;5071416;28;19943;-66
2022/03/21 03:19:05;;;;;;;;;;;;;;;1.06;74.60;100740.00;5070411;28;20566;-66
2022/03/21 03:21:34;;;;;;;;;;;;;;;1.07;74.33;100744.25;5071661;28;20011;-66
2022/03/21 03:24:00;;;;;;;;;;;;;;;1.04;74.11;100747.16;5060076;28;20415;-68
2022/03/21 03:26:26;;;;;;;;;;;;;;;1.03;75.10;100742.06;5073469;28;19928;-66
2022/03/21 03:28:51;;;;;;;;;;;;;;;1.06;74.82;100744.38;5091586;28;19953;-64
2022/03/21 03:31:17;;;;;;;;;;;;;;;1.03;74.86;100748.13;5091625;28;19928;-68
2022/03/21 03:33:45;;;;;;;;;;;;;;;1.07;74.76;100743.44;5091894;28;19947;-69
2022/03/21 03:36:10;;;;;;;;;;;;;;;1.08;74.49;100734.63;5071562;28;19932;-67
2022/03/21 03:38:36;;;;;;;;;;;;;;;1.12;74.15;100746.44;5073258;28;19977;-70
2022/03/21 03:41:02;;;;;;;;;;;;;;;1.17;74.67;100732.94;5053656;28;20282;-67
2022/03/21 03:43:29;;;;;;;;;;;;;;;1.22;73.88;100738.56;5055079;28;19931;-66
2022/03/21 03:45:57;;;;;;;;;;;;;;;1.21;73.94;100737.75;5053779;28;19936;-67
2022/03/21 03:48:22;;;;;;;;;;;;;;;1.28;73.69;100738.00;5053821;28;19931;-67
2022/03/21 03:50:48;;;;;;;;;;;;;;;1.39;73.35;100729.97;5055030;28;19929;-66
2022/03/21 03:53:14;;;;;;;;;;;;;;;1.50;73.49;100737.63;5053766;28;20258;-67
2022/03/21 03:55:40;;;;;;;;;;;;;;;1.67;72.40;100738.63;5094768;28;19932;-67
2022/03/21 03:58:06;;;;;;;;;;;;;;;1.80;72.14;100740.91;5095074;28;19928;-66
2022/03/21 04:00:31;;;;;;;;;;;;;;;1.89;71.71;100745.25;5094957;28;20369;-66
2022/03/21 04:05:41;;;;;;;;;;;;;;;2.14;70.26;100748.91;5095045;28;19928;-66
2022/03/21 04:08:07;;;;;;;;;;;;;;;2.28;70.01;100740.53;5094948;28;19930;-64
2022/03/21 04:10:32;;;;;;;;;;;;;;;2.34;69.62;100744.34;5094565;28;19928;-65
2022/03/21 04:12:58;;;;;;;;;;;;;;;2.39;69.30;100747.34;5091322;28;19977;-63
2022/03/21 04:15:23;;;;;;;;;;;;;;;2.47;68.84;100749.19;5076519;28;19929;-62
2022/03/21 04:17:50;;;;;;;;;;;;;;;2.49;68.39;100752.50;5074452;28;19924;-64
2022/03/21 04:20:15;;;;;;;;;;;;;;;2.56;68.80;100747.47;5073949;28;19971;-65
2022/03/21 04:22:41;;;;;;;;;;;;;;;2.50;68.47;100746.31;5072510;28;20350;-64
2022/03/21 04:25:07;;;;;;;;;;;;;;;2.44;68.67;100737.25;5072905;28;20412;-64
2022/03/21 04:27:33;;;;;;;;;;;;;;;2.39;68.93;100746.53;5056058;28;19924;-62
2022/03/21 04:29:59;;;;;;;;;;;;;;;2.39;68.89;100742.13;5055734;28;20393;-63
2022/03/21 04:32:25;;;;;;;;;;;;;;;2.53;68.43;100740.75;5075756;28;19925;-64
2022/03/21 04:34:50;;;;;;;;;;;;;;;2.55;68.11;100732.75;5064574;28;19940;-65
2022/03/21 04:37:16;;;;;;;;;;;;;;;2.56;68.15;100730.00;5073621;28;19920;-64
2022/03/21 04:39:41;;;;;;;;;;;;;;;2.53;68.48;100743.38;5075843;28;19936;-64
2022/03/21 04:42:06;;;;;;;;;;;;;;;2.49;68.45;100737.59;5094361;28;20300;-63
2022/03/21 04:44:32;;;;;;;;;;;;;;;2.46;68.43;100732.66;5060010;28;20380;-64
2022/03/21 04:46:58;;;;;;;;;;;;;;;2.57;68.52;100734.22;5052397;28;19929;-66
2022/03/21 04:49:25;;;;;;;;;;;;;;;2.54;68.00;100734.53;5070235;28;19920;-64
2022/03/21 04:51:51;;;;;;;;;;;;;;;2.58;68.31;100737.66;5055747;28;20042;-64
2022/03/21 04:54:17;;;;;;;;;;;;;;;2.59;68.16;100745.38;5072539;28;19924;-66
2022/03/21 04:56:43;;;;;;;;;;;;;;;2.56;68.39;100753.53;5072363;28;19951;-66
2022/03/21 04:59:09;;;;;;;;;;;;;;;2.57;68.24;100746.50;5072310;28;19932;-66
2022/03/21 05:01:35;;;;;;;;;;;;;;;2.60;68.14;100754.06;5072027;28;19933;-65
2022/03/21 05:04:01;;;;;;;;;;;;;;;2.65;67.89;100746.56;5053022;28;19924;-63
2022/03/21 05:06:27;;;;;;;;;;;;;;;2.75;67.67;100747.28;5053572;28;20455;-66
2022/03/21 05:08:52;;;;;;;;;;;;;;;2.72;67.44;100747.59;5053009;28;19932;-65
2022/03/21 05:11:18;;;;;;;;;;;;;;;2.75;67.57;100747.28;5056970;28;19928;-65
2022/03/21 05:13:43;;;;;;;;;;;;;;;2.78;67.31;100757.47;5072930;28;19975;-61
2022/03/21 05:16:09;;;;;;;;;;;;;;;2.73;67.39;100764.94;5072632;28;20472;-64
2022/03/21 05:18:34;;;;;;;;;;;;;;;2.87;67.10;100760.97;5072934;28;19973;-63
2022/03/21 05:21:00;;;;;;;;;;;;;;;2.95;66.56;100768.88;5071866;28;20023;-64
2022/03/21 05:31:38;;;;;;;;;;;;;;;3.08;65.90;100765.84;5093174;28;19928;-65
2022/03/21 05:36:48;;;;;;;;;;;;;;;3.00;66.39;100764.00;5093011;28;19928;-64
2022/03/21 05:39:13;;;;;;;;;;;;;;;3.01;66.21;100768.25;5092706;28;19985;-64
2022/03/21 05:41:38;;;;;;;;;;;;;;;3.14;66.09;100765.22;5092851;28;20030;-64
2022/03/21 05:44:04;;;;;;;;;;;;;;;3.26;65.63;100763.97;5091116;28;20031;-63
2022/03/21 05:46:30;;;;;;;;;;;;;;;3.38;65.24;100754.88;5092530;28;19932;-62
2022/03/21 05:49:02;;;;;;;;;;;;;;;3.44;64.95;100748.16;5092608;28;19924;-63
2022/03/21 05:51:32;;;;;;;;;;;;;;;3.59;64.44;100740.53;5074489;28;19970;-61
2022/03/21 05:53:58;;;;;;;;;;;;;;;3.65;64.20;100739.91;5074465;28;20317;-62
2022/03/21 05:56:25;;;;;;;;;;;;;;;3.72;64.00;100750.56;5091291;28;20468;-62
2022/03/21 05:58:51;;;;;;;;;;;;;;;3.75;63.43;100737.94;5087959;28;19927;-63
2022/03/21 06:01:21;;;;;;;;;;;;;;;3.89;63.29;100735.72;5087218;28;19935;-62
2022/03/21 06:03:48;;;;;;;;;;;;;;;3.96;63.32;100742.75;5086163;28;19967;-62
2022/03/21 06:06:14;;;;;;;;;;;;;;;4.00;63.18;100740.63;5087613;28;20001;-61
2022/03/21 06:08:39;;;;;;;;;;;;;;;4.08;62.79;100741.47;5085459;28;19967;-61
2022/03/21 06:11:05;;;;;;;;;;;;;;;4.09;62.31;100734.44;5088029;28;19955;-61
2022/03/21 06:13:32;;;;;;;;;;;;;;;4.14;62.33;100723.44;5084659;28;19928;-59
2022/03/21 06:16:00;;;;;;;;;;;;;;;4.23;62.23;100728.50;5070078;28;19929;-61
2022/03/21 06:18:26;;;;;;;;;;;;;;;4.20;61.77;100728.03;5066371;28;19960;-61
2022/03/21 06:20:52;;;;;;;;;;;;;;;4.24;61.34;100729.38;5067851;28;20325;-60
2022/03/21 06:23:18;;;;;;;;;;;;;;;4.39;61.00;100726.91;5089202;28;19931;-59
2022/03/21 06:25:43;;;;;;;;;;;;;;;4.46;60.74;100727.88;5086451;28;19928;-61
2022/03/21 06:28:08;;;;;;;;;;;;;;;4.48;60.88;100725.91;5083294;28;20339;-62
2022/03/21 06:30:34;;;;;;;;;;;;;;;4.62;60.64;100724.41;5068608;28;20346;-60
2022/03/21 06:32:59;;;;;;;;;;;;;;;4.62;60.36;100732.28;5070458;28;19936;-61
2022/03/21 06:35:25;;;;;;;;;;;;;;;4.72;60.14;100733.78;5067119;28;20370;-60
2022/03/21 06:37:51;;;;;;;;;;;;;;;4.87;60.17;100741.78;5069872;28;19924;-61
2022/03/21 06:40:20;;;;;;;;;;;;;;;4.87;59.22;100743.59;5030051;28;19928;-61
2022/03/21 06:42:45;;;;;;;;;;;;;;;4.96;58.77;100739.97;5086793;28;19924;-60
2022/03/21 06:45:11;;;;;;;;;;;;;;;5.00;58.84;100739.47;5088247;28;19928;-60
2022/03/21 06:47:36;;;;;;;;;;;;;;;5.11;58.49;100738.28;5089810;28;19924;-60
2022/03/21 06:50:02;;;;;;;;;;;;;;;5.17;58.68;100736.78;5088171;28;19935;-61
2022/03/21 06:52:28;;;;;;;;;;;;;;;5.26;57.83;100740.22;5090939;28;19931;-59
2022/03/21 06:54:54;;;;;;;;;;;;;;;5.27;57.68;100732.19;5089119;28;19928;-60
2022/03/21 06:57:21;;;;;;;;;;;;;;;5.26;57.66;100721.81;5088862;28;20027;-63
2022/03/21 06:59:47;;;;;;;;;;;;;;;5.25;57.65;100718.38;5089807;28;19928;-61
2022/03/21 07:02:13;;;;;;;;;;;;;;;5.33;57.04;100730.69;5056632;28;19972;-62
2022/03/21 07:04:39;;;;;;;;;;;;;;;5.41;56.85;100718.31;5062632;28;20464;-61
2022/03/21 07:07:04;;;;;;;;;;;;;;;5.50;56.57;100716.47;5058317;28;19928;-61
2022/03/21 07:09:30;;;;;;;;;;;;;;;5.56;55.99;100720.19;5067511;28;19928;-62
2022/03/21 07:11:55;;;;;;;;;;;;;;;5.64;55.56;100728.88;5069438;28;19928;-60
2022/03/21 07:14:21;;;;;;;;;;;;;;;5.70;55.84;100722.91;5038522;28;19932;-61
2022/03/21 07:16:47;;;;;;;;;;;;;;;5.73;55.57;100723.59;5070470;28;19930;-60
2022/03/21 07:19:13;;;;;;;;;;;;;;;5.77;54.93;100732.78;5067188;28;19958;-61
2022/03/21 07:21:38;;;;;;;;;;;;;;;5.86;54.75;100729.13;5070818;28;20039;-61
2022/03/21 07:24:04;;;;;;;;;;;;;;;5.92;54.78;100725.78;5070926;28;20015;-62
2022/03/21 07:26:31;;;;;;;;;;;;;;;5.99;55.04;100725.94;5067337;28;19940;-63
2022/03/21 07:28:56;;;;;;;;;;;;;;;6.00;54.63;100724.91;5073799;28;19963;-63
2022/03/21 07:31:23;;;;;;;;;;;;;;;6.08;53.57;100715.16;5072545;28;19967;-62
2022/03/21 07:33:50;;;;;;;;;;;;;;;6.17;54.31;100721.19;5061114;28;19932;-61
2022/03/21 07:36:15;;;;;;;;;;;;;;;6.24;53.63;100716.88;5049930;28;20405;-62
2022/03/21 07:38:41;;;;;;;;;;;;;;;6.31;53.18;100720.44;5066502;28;20394;-63
2022/03/21 07:41:07;;;;;;;;;;;;;;;6.36;53.22;100710.19;5061176;28;19951;-62
2022/03/21 07:43:36;;;;;;;;;;;;;;;6.41;52.33;100712.28;5038854;28;19978;-62
2022/03/21 07:48:46;;;;;;;;;;;;;;;6.63;52.31;100709.81;5067260;28;20045;-63
2022/03/21 07:51:11;;;;;;;;;;;;;;;6.68;51.99;100708.28;5058635;28;20400;-60
2022/03/21 07:53:37;;;;;;;;;;;;;;;6.67;51.06;100709.25;5066091;28;19928;-61
2022/03/21 07:56:02;;;;;;;;;;;;;;;6.69;51.95;100716.97;5069248;28;20356;-61
2022/03/21 07:58:28;;;;;;;;;;;;;;;6.79;51.29;100707.84;5054784;28;19986;-61
2022/03/21 08:00:55;;;;;;;;;;;;;;;6.81;51.20;100711.09;5049312;28;20294;-63
2022/03/21 08:03:22;;;;;;;;;;;;;;;6.86;50.23;100710.56;5048319;28;20023;-61
2022/03/21 08:05:47;;;;;;;;;;;;;;;6.89;50.56;100707.56;5051446;28;20490;-60
2022/03/21 08:08:14;;;;;;;;;;;;;;;6.93;50.37;100708.00;5049478;28;19928;-61
2022/03/21 08:10:39;;;;;;;;;;;;;;;7.00;50.19;100719.47;5049132;28;19933;-60
2022/03/21 08:13:05;;;;;;;;;;;;;;;7.08;50.41;100716.75;5061825;28;20456;-61
2022/03/21 08:15:30;;;;;;;;;;;;;;;7.11;49.84;100716.38;5069327;28;19940;-61
2022/03/21 08:18:03;;;;;;;;;;;;;;;7.07;49.80;100715.09;5069792;28;19931;-61
2022/03/21 08:20:33;;;;;;;;;;;;;;;7.10;50.49;100720.03;5050212;28;20001;-59
2022/03/21 08:23:08;;;;;;;;;;;;;;;7.16;50.37;100718.47;5051345;28;20023;-61
2022/03/21 08:25:45;;;;;;;;;;;;;;;7.26;49.61;100719.00;5034337;28;19936;-61
2022/03/21 08:28:11;;;;;;;;;;;;;;;7.34;49.49;100726.00;5066202;28;20165;-60
2022/03/21 08:30:37;;;;;;;;;;;;;;;7.34;49.09;100729.47;5066439;28;19928;-62
2022/03/21 08:33:03;;;;;;;;;;;;;;;7.40;49.23;100733.19;5067240;28;19924;-62
2022/03/21 08:35:28;;;;;;;;;;;;;;;7.46;49.21;100733.28;5068948;28;19932;-61
2022/03/21 08:37:54;;;;;;;;;;;;;;;7.52;48.85;100739.63;5069611;28;19931;-62
2022/03/21 08:40:20;;;;;;;;;;;;;;;7.53;48.60;100741.28;5063298;28;20023;-64
2022/03/21 08:42:47;;;;;;;;;;;;;;;7.51;48.52;100733.53;5064883;28;19964;-62
2022/03/21 08:45:13;;;;;;;;;;;;;;;7.50;48.28;100741.66;5062994;28;20378;-61
2022/03/21 08:47:39;;;;;;;;;;;;;;;7.54;48.85;100732.34;5068480;28;19931;-60
2022/03/21 08:50:05;;;;;;;;;;;;;;;7.58;48.64;100732.81;5069580;28;19928;-60
2022/03/21 08:52:30;;;;;;;;;;;;;;;7.62;48.38;100726.16;5069864;28;19974;-62
2022/03/21 08:54:56;;;;;;;;;;;;;;;7.68;48.06;100728.88;5068091;28;19929;-62
2022/03/21 08:57:22;;;;;;;;;;;;;;;7.78;47.85;100723.28;5062396;28;19971;-59
2022/03/21 08:59:47;;;;;;;;;;;;;;;7.86;47.94;100728.47;5067259;28;19932;-60
2022/03/21 09:02:13;;;;;;;;;;;;;;;7.93;47.67;100726.69;5069432;28;20405;-60
2022/03/21 09:04:39;;;;;;;;;;;;;;;8.01;47.22;100724.97;5069173;28;20286;-60
2022/03/21 09:07:05;;;;;;;;;;;;;;;8.01;46.95;100730.25;5070326;28;19974;-62
2022/03/21 09:09:30;;;;;;;;;;;;;;;8.03;46.71;100726.41;5067781;28;19928;-62
2022/03/21 09:11:57;;;;;;;;;;;;;;;8.01;47.21;100725.78;5051005;28;19977;-62
2022/03/21 09:14:22;;;;;;;;;;;;;;;8.07;46.58;100724.22;5066057;28;20301;-61
2022/03/21 09:16:50;;;;;;;;;;;;;;;8.16;47.15;100725.72;5069072;28;19929;-61
2022/03/21 09:19:16;;;;;;;;;;;;;;;8.13;46.88;100713.72;5066780;28;19978;-61
2022/03/21 09:21:41;;;;;;;;;;;;;;;8.20;46.45;100719.84;5067769;28;19928;-61
2022/03/21 09:24:07;;;;;;;;;;;;;;;8.27;46.29;100722.59;5066720;28;20015;-61
2022/03/21 09:26:32;;;;;;;;;;;;;;;8.30;46.48;100716.09;5063229;28;20368;-62
2022/03/21 09:29:03;;;;;;;;;;;;;;;8.31;46.35;100717.72;5049003;28;19970;-61
2022/03/21 09:31:29;;;;;;;;;;;;;;;8.36;46.27;100716.16;5059352;28;19928;-62
2022/03/21 09:33:55;;;;;;;;;;;;;;;8.41;45.93;100713.81;5077981;28;19924;-66
2022/03/21 09:36:20;;;;;;;;;;;;;;;8.42;45.77;100711.97;5079524;28;20019;-63
2022/03/21 09:38:46;;;;;;;;;;;;;;;8.49;45.76;100714.66;5064268;28;20279;-64
2022/03/21 09:41:13;;;;;;;;;;;;;;;8.57;45.18;100715.34;5059974;28;19986;-65
2022/03/21 09:43:39;;;;;;;;;;;;;;;8.66;44.74;100721.31;5066699;28;19925;-59
2022/03/21 09:46:13;;;;;;;;;;;;;;;8.64;44.93;100710.91;5050775;28;19979;-61
2022/03/21 09:48:51;;;;;;;;;;;;;;;8.73;44.95;100719.50;5015009;28;20057;-64
2022/03/21 09:51:21;;;;;;;;;;;;;;;8.80;43.99;100712.47;5059221;28;19935;-61
2022/03/21 09:53:47;;;;;;;;;;;;;;;8.84;44.92;100713.69;5068435;28;19924;-62
2022/03/21 09:56:13;;;;;;;;;;;;;;;8.84;43.90;100712.88;5068977;28;19935;-61
2022/03/21 09:58:39;;;;;;;;;;;;;;;8.90;43.85;100719.22;5072730;28;19924;-60
2022/03/21 10:01:05;;;;;;;;;;;;;;;8.95;44.05;100706.25;5071045;28;20417;-62
2022/03/21 10:03:33;;;;;;;;;;;;;;;8.99;44.02;100710.13;5069157;28;19936;-62
2022/03/21 10:05:59;;;;;;;;;;;;;;;8.99;43.30;100705.66;5066668;28;19928;-61
2022/03/21 10:08:26;;;;;;;;;;;;;;;9.08;43.66;100707.13;5070205;28;19924;-62
2022/03/21 10:10:55;;;;;;;;;;;;;;;9.14;42.63;100704.72;5052972;28;19935;-61
2022/03/21 10:13:21;;;;;;;;;;;;;;;9.20;42.76;100704.75;5067618;28;19929;-61
2022/03/21 10:15:47;;;;;;;;;;;;;;;9.22;42.37;100707.22;5052515;28;19929;-62
2022/03/21 10:18:13;;;;;;;;;;;;;;;9.24;42.29;100707.84;5067007;28;20021;-61
2022/03/21 10:20:40;;;;;;;;;;;;;;;9.25;41.46;100696.22;5036456;28;19932;-62
2022/03/21 10:23:22;;;;;;;;;;;;;;;9.28;41.24;100701.94;5070010;28;19924;-62
2022/03/21 10:25:48;;;;;;;;;;;;;;;9.33;41.83;100699.53;5070451;28;19981;-62
2022/03/21 10:28:32;;;;;;;;;;;;;;;9.36;41.59;100705.44;5071405;28;20027;-62
2022/03/21 10:30:58;;;;;;;;;;;;;;;9.36;39.89;100702.81;5070799;28;19936;-64
2022/03/21 10:33:24;;;;;;;;;;;;;;;9.42;39.32;100704.66;5070265;28;19924;-62
2022/03/21 10:35:49;;;;;;;;;;;;;;;9.46;38.15;100698.75;5070739;28;19933;-61
2022/03/21 10:38:28;;;;;;;;;;;;;;;9.49;39.34;100698.34;5069101;28;19947;-62
2022/03/21 10:40:53;;;;;;;;;;;;;;;9.52;38.53;100690.03;5069849;28;19974;-62
2022/03/21 10:43:19;;;;;;;;;;;;;;;9.52;38.58;100699.78;5071351;28;20031;-63
2022/03/21 10:45:45;;;;;;;;;;;;;;;9.58;38.83;100695.53;5035788;28;19928;-63
2022/03/21 10:48:17;;;;;;;;;;;;;;;9.60;37.61;100696.16;5052379;28;19929;-63
2022/03/21 10:50:44;;;;;;;;;;;;;;;9.63;37.27;100724.91;5070135;28;19928;-63
2022/03/21 10:53:19;;;;;;;;;;;;;;;9.68;36.88;100723.28;5068784;28;19930;-62
2022/03/21 10:55:45;;;;;;;;;;;;;;;9.67;36.56;100726.94;5066570;28;19928;-63
2022/03/21 10:58:12;;;;;;;;;;;;;;;9.68;36.52;100717.19;5068407;28;20387;-62
2022/03/21 11:00:37;;;;;;;;;;;;;;;9.68;36.71;100704.75;5065635;28;19935;-61
2022/03/21 11:03:09;;;;;;;;;;;;;;;9.73;36.90;100704.13;5067324;28;19924;-61
2022/03/21 11:05:38;;;;;;;;;;;;;;;9.77;36.21;100702.75;5066759;28;19935;-62
2022/03/21 11:08:05;;;;;;;;;;;;;;;9.83;37.32;100691.34;5069046;28;20141;-60
2022/03/21 11:10:30;;;;;;;;;;;;;;;9.83;36.75;100712.53;5050980;28;19939;-62
2022/03/21 11:12:57;;;;;;;;;;;;;;;9.91;36.42;100696.47;5068715;28;19924;-62
2022/03/21 11:15:22;;;;;;;;;;;;;;;9.95;36.59;100699.53;5068148;28;19936;-60
2022/03/21 11:17:48;;;;;;;;;;;;;;;9.96;36.10;100701.97;5067709;28;19928;-61
2022/03/21 11:20:14;;;;;;;;;;;;;;;9.98;36.46;100699.13;5070410;28;19936;-62
2022/03/21 11:22:40;;;;;;;;;;;;;;;9.99;36.19;100695.44;5069992;28;19967;-61
2022/03/21 11:25:06;;;;;;;;;;;;;;;10.01;35.72;100711.97;5070042;28;19982;-61
2022/03/21 11:27:32;;;;;;;;;;;;;;;9.99;36.05;100696.25;5068732;28;19932;-59
2022/03/21 11:30:01;;;;;;;;;;;;;;;10.01;36.06;100693.41;5070530;28;19932;-63
2022/03/21 11:32:39;;;;;;;;;;;;;;;10.05;35.85;100684.03;5034928;28;19924;-61
2022/03/21 11:35:11;;;;;;;;;;;;;;;10.03;35.27;100680.78;5070395;28;19940;-59
2022/03/21 11:37:37;;;;;;;;;;;;;;;10.00;35.86;100689.97;5069151;28;20417;-62
2022/03/21 11:40:21;;;;;;;;;;;;;;;10.08;36.13;100680.16;5070116;28;19928;-60
2022/03/21 11:42:47;;;;;;;;;;;;;;;10.10;35.84;100684.25;5068499;28;20409;-61
2022/03/21 11:45:24;;;;;;;;;;;;;;;10.13;35.32;100683.03;5069110;28;20108;-61
2022/03/21 11:47:50;;;;;;;;;;;;;;;10.13;36.06;100681.19;5069453;28;20360;-60
2022/03/21 11:50:25;;;;;;;;;;;;;;;10.17;35.10;100677.13;5068523;28;20499;-61
2022/03/21 11:53:07;;;;;;;;;;;;;;;10.19;34.65;100674.28;5068348;28;20349;-62
2022/03/21 11:55:41;;;;;;;;;;;;;;;10.20;35.03;100676.72;5065476;28;20204;-62
2022/03/21 11:58:21;;;;;;;;;;;;;;;10.24;35.50;100671.84;5066045;28;19924;-62
2022/03/21 12:01:06;;;;;;;;;;;;;;;10.23;35.75;100678.13;5071837;28;20441;-61
2022/03/21 12:03:31;;;;;;;;;;;;;;;10.27;34.75;100675.94;5070770;28;19925;-61
2022/03/21 12:05:57;;;;;;;;;;;;;;;10.24;33.50;100680.59;5071140;28;20291;-62
2022/03/21 12:08:29;;;;;;;;;;;;;;;10.27;34.40;100690.00;5072397;28;19932;-62
2022/03/21 12:10:54;;;;;;;;;;;;;;;10.25;33.85;100673.47;5070910;28;19928;-61
2022/03/21 12:13:20;;;;;;;;;;;;;;;10.27;34.15;100676.75;5054749;28;20452;-61
2022/03/21 12:15:51;;;;;;;;;;;;;;;10.30;34.02;100680.84;5037462;28;19928;-61
2022/03/21 12:18:19;;;;;;;;;;;;;;;10.34;35.22;100674.91;5071329;28;20356;-60
2022/03/21 12:20:46;;;;;;;;;;;;;;;10.34;34.21;100671.47;5071762;28;19960;-62
2022/03/21 12:23:18;;;;;;;;;;;;;;;10.32;33.81;100673.47;5073231;28;20372;-61
2022/03/21 12:25:51;;;;;;;;;;;;;;;10.29;34.41;100685.31;5019736;28;19967;-62
2022/03/21 12:28:16;;;;;;;;;;;;;;;10.26;34.07;100677.72;5071475;28;19964;-63
2022/03/21 12:30:42;;;;;;;;;;;;;;;10.27;33.97;100678.59;5070922;28;19968;-62
2022/03/21 12:33:12;;;;;;;;;;;;;;;10.30;33.62;100671.06;5071076;28;20031;-60
2022/03/21 12:35:45;;;;;;;;;;;;;;;10.24;34.13;100675.31;5068190;28;19959;-62
2022/03/21 12:38:11;;;;;;;;;;;;;;;10.21;34.22;100672.25;5035629;28;19924;-60
2022/03/21 12:40:38;;;;;;;;;;;;;;;10.20;35.25;100673.25;5067172;28;19928;-60
2022/03/21 12:43:04;;;;;;;;;;;;;;;10.23;35.05;100675.50;5052680;28;20077;-63
2022/03/21 12:45:30;;;;;;;;;;;;;;;10.26;35.22;100674.28;5069989;28;19928;-63
2022/03/21 12:48:00;;;;;;;;;;;;;;;10.27;35.16;100674.13;5067606;28;19928;-63
2022/03/21 12:50:27;;;;;;;;;;;;;;;10.21;35.53;100670.41;5069974;28;19963;-63
2022/03/21 12:52:57;;;;;;;;;;;;;;;10.20;35.30;100666.09;5066604;28;20442;-65
2022/03/21 12:55:23;;;;;;;;;;;;;;;10.15;35.87;100668.56;5070017;28;19974;-66
2022/03/21 12:57:57;;;;;;;;;;;;;;;10.12;35.46;100670.81;5071161;28;20043;-65
2022/03/21 13:00:26;;;;;;;;;;;;;;;10.08;35.48;100677.53;5070852;28;19928;-63
2022/03/21 13:02:55;;;;;;;;;;;;;;;10.07;35.30;100686.50;5069662;28;19931;-64